sensor_id;sensor_type;location;lat;lon;timestamp;P1;durP1;ratioP1;P2;durP2;ratioP2
72388;SDS011;60566;48.062;9.930;2023-07-22T00:00:14;9.63;;;4.20;;
72388;SDS011;60566;48.062;9.930;2023-07-22T00:02:41;11.10;;;3.83;;
72388;SDS011;60566;48.062;9.930;2023-07-22T00:05:07;7.28;;;3.65;;
72388;SDS011;60566;48.062;9.930;2023-07-22T00:07:33;13.25;;;4.13;;
72388;SDS011;60566;48.062;9.930;2023-07-22T00:09:58;6.68;;;4.00;;
72388;SDS011;60566;48.062;9.930;2023-07-22T00:12:24;10.77;;;4.22;;
72388;SDS011;60566;48.062;9.930;2023-07-22T00:14:49;5.80;;;3.70;;
72388;SDS011;60566;48.062;9.930;2023-07-22T00:17:14;9.23;;;3.75;;
72388;SDS011;60566;48.062;9.930;2023-07-22T00:19:41;9.65;;;3.50;;
72388;SDS011;60566;48.062;9.930;2023-07-22T00:22:06;7.15;;;3.75;;
72388;SDS011;60566;48.062;9.930;2023-07-22T00:24:32;9.20;;;4.07;;
72388;SDS011;60566;48.062;9.930;2023-07-22T00:26:57;8.95;;;3.60;;
72388;SDS011;60566;48.062;9.930;2023-07-22T00:29:23;6.82;;;3.50;;
72388;SDS011;60566;48.062;9.930;2023-07-22T00:31:48;8.68;;;4.00;;
72388;SDS011;60566;48.062;9.930;2023-07-22T00:34:13;5.05;;;3.10;;
72388;SDS011;60566;48.062;9.930;2023-07-22T00:36:40;7.22;;;3.53;;
72388;SDS011;60566;48.062;9.930;2023-07-22T00:39:05;5.30;;;3.20;;
72388;SDS011;60566;48.062;9.930;2023-07-22T00:41:31;6.55;;;3.40;;
72388;SDS011;60566;48.062;9.930;2023-07-22T00:43:56;7.70;;;3.95;;
72388;SDS011;60566;48.062;9.930;2023-07-22T00:46:22;7.43;;;3.53;;
72388;SDS011;60566;48.062;9.930;2023-07-22T00:48:47;8.43;;;3.90;;
72388;SDS011;60566;48.062;9.930;2023-07-22T00:51:13;8.40;;;3.70;;
72388;SDS011;60566;48.062;9.930;2023-07-22T00:53:40;8.82;;;3.90;;
72388;SDS011;60566;48.062;9.930;2023-07-22T00:56:05;12.23;;;3.47;;
72388;SDS011;60566;48.062;9.930;2023-07-22T00:58:31;8.95;;;3.63;;
72388;SDS011;60566;48.062;9.930;2023-07-22T01:00:57;10.05;;;4.00;;
72388;SDS011;60566;48.062;9.930;2023-07-22T01:03:22;6.32;;;3.25;;
72388;SDS011;60566;48.062;9.930;2023-07-22T01:05:48;7.70;;;3.17;;
72388;SDS011;60566;48.062;9.930;2023-07-22T01:08:14;6.90;;;3.75;;
72388;SDS011;60566;48.062;9.930;2023-07-22T01:10:41;7.15;;;3.80;;
72388;SDS011;60566;48.062;9.930;2023-07-22T01:13:06;6.88;;;3.50;;
72388;SDS011;60566;48.062;9.930;2023-07-22T01:15:32;9.38;;;3.67;;
72388;SDS011;60566;48.062;9.930;2023-07-22T01:17:57;6.43;;;3.72;;
72388;SDS011;60566;48.062;9.930;2023-07-22T01:20:23;7.57;;;3.38;;
72388;SDS011;60566;48.062;9.930;2023-07-22T01:22:51;9.63;;;3.63;;
72388;SDS011;60566;48.062;9.930;2023-07-22T01:25:16;9.13;;;3.75;;
72388;SDS011;60566;48.062;9.930;2023-07-22T01:27:43;6.40;;;3.63;;
72388;SDS011;60566;48.062;9.930;2023-07-22T01:30:09;7.68;;;3.85;;
72388;SDS011;60566;48.062;9.930;2023-07-22T01:32:34;7.10;;;3.30;;
72388;SDS011;60566;48.062;9.930;2023-07-22T01:35:00;5.18;;;3.13;;
72388;SDS011;60566;48.062;9.930;2023-07-22T01:37:25;8.40;;;3.28;;
72388;SDS011;60566;48.062;9.930;2023-07-22T01:39:52;8.63;;;3.33;;
72388;SDS011;60566;48.062;9.930;2023-07-22T01:42:17;6.35;;;3.63;;
72388;SDS011;60566;48.062;9.930;2023-07-22T01:44:43;7.65;;;3.28;;
72388;SDS011;60566;48.062;9.930;2023-07-22T01:47:08;6.15;;;3.10;;
72388;SDS011;60566;48.062;9.930;2023-07-22T01:49:33;8.93;;;4.38;;
72388;SDS011;60566;48.062;9.930;2023-07-22T01:51:59;6.72;;;3.15;;
72388;SDS011;60566;48.062;9.930;2023-07-22T01:54:24;5.43;;;3.05;;
72388;SDS011;60566;48.062;9.930;2023-07-22T01:56:51;8.80;;;3.92;;
72388;SDS011;60566;48.062;9.930;2023-07-22T01:59:16;8.57;;;2.97;;
72388;SDS011;60566;48.062;9.930;2023-07-22T02:01:42;5.88;;;3.20;;
72388;SDS011;60566;48.062;9.930;2023-07-22T02:04:07;5.80;;;2.80;;
72388;SDS011;60566;48.062;9.930;2023-07-22T02:06:32;6.20;;;3.22;;
72388;SDS011;60566;48.062;9.930;2023-07-22T02:08:58;6.32;;;2.45;;
72388;SDS011;60566;48.062;9.930;2023-07-22T02:11:23;6.00;;;3.78;;
72388;SDS011;60566;48.062;9.930;2023-07-22T02:13:50;9.60;;;3.63;;
72388;SDS011;60566;48.062;9.930;2023-07-22T02:16:15;7.20;;;3.15;;
72388;SDS011;60566;48.062;9.930;2023-07-22T02:18:41;4.93;;;2.80;;
72388;SDS011;60566;48.062;9.930;2023-07-22T02:21:06;5.70;;;2.70;;
72388;SDS011;60566;48.062;9.930;2023-07-22T02:23:31;7.00;;;3.15;;
72388;SDS011;60566;48.062;9.930;2023-07-22T02:25:57;4.95;;;2.40;;
72388;SDS011;60566;48.062;9.930;2023-07-22T02:28:22;5.47;;;3.08;;
72388;SDS011;60566;48.062;9.930;2023-07-22T02:30:49;7.30;;;2.95;;
72388;SDS011;60566;48.062;9.930;2023-07-22T02:33:15;9.32;;;3.17;;
72388;SDS011;60566;48.062;9.930;2023-07-22T02:35:41;6.70;;;2.90;;
72388;SDS011;60566;48.062;9.930;2023-07-22T02:38:06;7.07;;;3.03;;
72388;SDS011;60566;48.062;9.930;2023-07-22T02:40:33;8.35;;;3.00;;
72388;SDS011;60566;48.062;9.930;2023-07-22T02:42:59;7.75;;;2.90;;
72388;SDS011;60566;48.062;9.930;2023-07-22T02:45:24;8.93;;;2.67;;
72388;SDS011;60566;48.062;9.930;2023-07-22T02:47:51;6.82;;;2.88;;
72388;SDS011;60566;48.062;9.930;2023-07-22T02:50:16;7.90;;;2.95;;
72388;SDS011;60566;48.062;9.930;2023-07-22T02:52:42;6.05;;;3.20;;
72388;SDS011;60566;48.062;9.930;2023-07-22T02:55:08;6.72;;;2.90;;
72388;SDS011;60566;48.062;9.930;2023-07-22T02:57:35;7.97;;;2.67;;
72388;SDS011;60566;48.062;9.930;2023-07-22T03:00:01;7.40;;;2.85;;
72388;SDS011;60566;48.062;9.930;2023-07-22T03:02:27;6.75;;;3.20;;
72388;SDS011;60566;48.062;9.930;2023-07-22T03:04:53;5.35;;;2.72;;
72388;SDS011;60566;48.062;9.930;2023-07-22T03:07:19;8.00;;;2.70;;
72388;SDS011;60566;48.062;9.930;2023-07-22T03:09:44;5.72;;;2.30;;
72388;SDS011;60566;48.062;9.930;2023-07-22T03:12:10;6.13;;;2.70;;
72388;SDS011;60566;48.062;9.930;2023-07-22T03:14:35;5.65;;;2.80;;
72388;SDS011;60566;48.062;9.930;2023-07-22T03:17:00;7.88;;;2.60;;
72388;SDS011;60566;48.062;9.930;2023-07-22T03:19:26;6.10;;;2.78;;
72388;SDS011;60566;48.062;9.930;2023-07-22T03:21:52;5.97;;;2.85;;
72388;SDS011;60566;48.062;9.930;2023-07-22T03:24:18;6.35;;;3.67;;
72388;SDS011;60566;48.062;9.930;2023-07-22T03:26:43;7.55;;;3.85;;
72388;SDS011;60566;48.062;9.930;2023-07-22T03:29:09;6.25;;;3.00;;
72388;SDS011;60566;48.062;9.930;2023-07-22T03:31:34;6.97;;;3.00;;
72388;SDS011;60566;48.062;9.930;2023-07-22T03:33:59;5.47;;;3.40;;
72388;SDS011;60566;48.062;9.930;2023-07-22T03:36:25;4.38;;;2.80;;
72388;SDS011;60566;48.062;9.930;2023-07-22T03:38:51;5.38;;;2.67;;
72388;SDS011;60566;48.062;9.930;2023-07-22T03:41:17;8.43;;;2.67;;
72388;SDS011;60566;48.062;9.930;2023-07-22T03:43:42;9.55;;;2.95;;
72388;SDS011;60566;48.062;9.930;2023-07-22T03:46:08;5.65;;;2.65;;
72388;SDS011;60566;48.062;9.930;2023-07-22T03:48:33;7.35;;;2.83;;
72388;SDS011;60566;48.062;9.930;2023-07-22T03:50:58;8.90;;;3.38;;
72388;SDS011;60566;48.062;9.930;2023-07-22T03:53:24;7.38;;;3.13;;
72388;SDS011;60566;48.062;9.930;2023-07-22T03:55:50;5.47;;;3.00;;
72388;SDS011;60566;48.062;9.930;2023-07-22T03:58:16;7.03;;;3.55;;
72388;SDS011;60566;48.062;9.930;2023-07-22T04:00:41;7.93;;;3.05;;
72388;SDS011;60566;48.062;9.930;2023-07-22T04:03:07;7.18;;;3.08;;
72388;SDS011;60566;48.062;9.930;2023-07-22T04:05:32;6.85;;;2.88;;
72388;SDS011;60566;48.062;9.930;2023-07-22T04:07:57;6.90;;;3.00;;
72388;SDS011;60566;48.062;9.930;2023-07-22T04:10:23;7.65;;;2.97;;
72388;SDS011;60566;48.062;9.930;2023-07-22T04:12:49;8.90;;;2.90;;
72388;SDS011;60566;48.062;9.930;2023-07-22T04:15:15;4.97;;;3.28;;
72388;SDS011;60566;48.062;9.930;2023-07-22T04:17:40;9.32;;;3.25;;
72388;SDS011;60566;48.062;9.930;2023-07-22T04:20:06;7.13;;;3.20;;
72388;SDS011;60566;48.062;9.930;2023-07-22T04:22:32;6.07;;;3.00;;
72388;SDS011;60566;48.062;9.930;2023-07-22T04:24:58;8.65;;;3.45;;
72388;SDS011;60566;48.062;9.930;2023-07-22T04:27:23;6.95;;;3.03;;
72388;SDS011;60566;48.062;9.930;2023-07-22T04:29:50;5.65;;;3.67;;
72388;SDS011;60566;48.062;9.930;2023-07-22T04:32:15;6.60;;;3.35;;
72388;SDS011;60566;48.062;9.930;2023-07-22T04:34:40;7.30;;;4.13;;
72388;SDS011;60566;48.062;9.930;2023-07-22T04:37:06;7.38;;;4.15;;
72388;SDS011;60566;48.062;9.930;2023-07-22T04:39:31;8.02;;;3.85;;
72388;SDS011;60566;48.062;9.930;2023-07-22T04:41:57;6.32;;;3.60;;
72388;SDS011;60566;48.062;9.930;2023-07-22T04:44:22;6.43;;;3.72;;
72388;SDS011;60566;48.062;9.930;2023-07-22T04:46:49;8.43;;;3.92;;
72388;SDS011;60566;48.062;9.930;2023-07-22T04:49:14;6.88;;;3.35;;
72388;SDS011;60566;48.062;9.930;2023-07-22T04:51:39;5.53;;;3.30;;
72388;SDS011;60566;48.062;9.930;2023-07-22T04:54:05;8.50;;;3.63;;
72388;SDS011;60566;48.062;9.930;2023-07-22T04:56:30;5.63;;;2.80;;
72388;SDS011;60566;48.062;9.930;2023-07-22T04:58:56;6.95;;;2.92;;
72388;SDS011;60566;48.062;9.930;2023-07-22T05:01:21;8.05;;;3.40;;
72388;SDS011;60566;48.062;9.930;2023-07-22T05:03:48;6.18;;;3.42;;
72388;SDS011;60566;48.062;9.930;2023-07-22T05:06:13;7.13;;;3.50;;
72388;SDS011;60566;48.062;9.930;2023-07-22T05:08:38;6.82;;;2.83;;
72388;SDS011;60566;48.062;9.930;2023-07-22T05:11:04;7.45;;;3.53;;
72388;SDS011;60566;48.062;9.930;2023-07-22T05:13:29;5.75;;;2.90;;
72388;SDS011;60566;48.062;9.930;2023-07-22T05:15:55;6.85;;;3.25;;
72388;SDS011;60566;48.062;9.930;2023-07-22T05:18:20;5.82;;;3.60;;
72388;SDS011;60566;48.062;9.930;2023-07-22T05:20:47;7.25;;;3.65;;
72388;SDS011;60566;48.062;9.930;2023-07-22T05:23:12;6.82;;;3.55;;
72388;SDS011;60566;48.062;9.930;2023-07-22T05:25:37;7.35;;;4.03;;
72388;SDS011;60566;48.062;9.930;2023-07-22T05:28:03;6.45;;;3.78;;
72388;SDS011;60566;48.062;9.930;2023-07-22T05:30:28;7.93;;;4.20;;
72388;SDS011;60566;48.062;9.930;2023-07-22T05:32:54;7.10;;;4.15;;
72388;SDS011;60566;48.062;9.930;2023-07-22T05:35:19;7.53;;;3.72;;
72388;SDS011;60566;48.062;9.930;2023-07-22T05:37:46;6.30;;;3.85;;
72388;SDS011;60566;48.062;9.930;2023-07-22T05:40:11;7.45;;;3.78;;
72388;SDS011;60566;48.062;9.930;2023-07-22T05:42:38;7.57;;;4.60;;
72388;SDS011;60566;48.062;9.930;2023-07-22T05:45:03;10.00;;;4.55;;
72388;SDS011;60566;48.062;9.930;2023-07-22T05:47:29;6.20;;;3.85;;
72388;SDS011;60566;48.062;9.930;2023-07-22T05:49:54;7.15;;;3.97;;
72388;SDS011;60566;48.062;9.930;2023-07-22T05:52:20;8.75;;;4.88;;
72388;SDS011;60566;48.062;9.930;2023-07-22T05:54:47;7.53;;;4.00;;
72388;SDS011;60566;48.062;9.930;2023-07-22T05:57:12;8.68;;;4.88;;
72388;SDS011;60566;48.062;9.930;2023-07-22T05:59:37;7.57;;;4.30;;
72388;SDS011;60566;48.062;9.930;2023-07-22T06:02:03;10.48;;;3.67;;
72388;SDS011;60566;48.062;9.930;2023-07-22T06:04:29;10.60;;;4.13;;
72388;SDS011;60566;48.062;9.930;2023-07-22T06:06:54;6.97;;;4.00;;
72388;SDS011;60566;48.062;9.930;2023-07-22T06:09:20;7.47;;;4.38;;
72388;SDS011;60566;48.062;9.930;2023-07-22T06:11:46;7.95;;;3.80;;
72388;SDS011;60566;48.062;9.930;2023-07-22T06:14:12;7.68;;;3.92;;
72388;SDS011;60566;48.062;9.930;2023-07-22T06:16:37;6.65;;;3.80;;
72388;SDS011;60566;48.062;9.930;2023-07-22T06:19:03;5.28;;;3.47;;
72388;SDS011;60566;48.062;9.930;2023-07-22T06:21:28;5.75;;;3.28;;
72388;SDS011;60566;48.062;9.930;2023-07-22T06:23:54;7.65;;;4.13;;
72388;SDS011;60566;48.062;9.930;2023-07-22T06:26:19;6.45;;;3.45;;
72388;SDS011;60566;48.062;9.930;2023-07-22T06:28:46;6.82;;;3.63;;
72388;SDS011;60566;48.062;9.930;2023-07-22T06:31:11;6.65;;;2.78;;
72388;SDS011;60566;48.062;9.930;2023-07-22T06:33:37;6.95;;;3.55;;
72388;SDS011;60566;48.062;9.930;2023-07-22T06:36:02;5.75;;;2.95;;
72388;SDS011;60566;48.062;9.930;2023-07-22T06:38:28;7.07;;;3.05;;
72388;SDS011;60566;48.062;9.930;2023-07-22T06:40:54;5.82;;;3.20;;
72388;SDS011;60566;48.062;9.930;2023-07-22T06:43:19;5.40;;;2.72;;
72388;SDS011;60566;48.062;9.930;2023-07-22T06:45:46;5.28;;;2.88;;
72388;SDS011;60566;48.062;9.930;2023-07-22T06:48:11;5.65;;;2.95;;
72388;SDS011;60566;48.062;9.930;2023-07-22T06:50:37;6.40;;;2.83;;
72388;SDS011;60566;48.062;9.930;2023-07-22T06:53:02;5.65;;;3.05;;
72388;SDS011;60566;48.062;9.930;2023-07-22T06:55:27;6.20;;;3.08;;
72388;SDS011;60566;48.062;9.930;2023-07-22T06:57:55;6.57;;;3.42;;
72388;SDS011;60566;48.062;9.930;2023-07-22T07:00:20;4.85;;;2.92;;
72388;SDS011;60566;48.062;9.930;2023-07-22T07:02:47;6.05;;;3.38;;
72388;SDS011;60566;48.062;9.930;2023-07-22T07:05:12;5.93;;;3.50;;
72388;SDS011;60566;48.062;9.930;2023-07-22T07:07:38;6.28;;;3.65;;
72388;SDS011;60566;48.062;9.930;2023-07-22T07:10:03;7.32;;;2.92;;
72388;SDS011;60566;48.062;9.930;2023-07-22T07:12:29;5.25;;;3.00;;
72388;SDS011;60566;48.062;9.930;2023-07-22T07:14:55;7.75;;;3.45;;
72388;SDS011;60566;48.062;9.930;2023-07-22T07:17:20;6.45;;;3.00;;
72388;SDS011;60566;48.062;9.930;2023-07-22T07:19:47;7.30;;;2.75;;
72388;SDS011;60566;48.062;9.930;2023-07-22T07:22:12;5.25;;;2.90;;
72388;SDS011;60566;48.062;9.930;2023-07-22T07:24:38;5.53;;;2.90;;
72388;SDS011;60566;48.062;9.930;2023-07-22T07:27:03;5.78;;;3.15;;
72388;SDS011;60566;48.062;9.930;2023-07-22T07:29:29;6.00;;;2.95;;
72388;SDS011;60566;48.062;9.930;2023-07-22T07:31:55;7.35;;;2.90;;
72388;SDS011;60566;48.062;9.930;2023-07-22T07:34:20;7.80;;;2.90;;
72388;SDS011;60566;48.062;9.930;2023-07-22T07:36:47;5.68;;;2.53;;
72388;SDS011;60566;48.062;9.930;2023-07-22T07:39:12;4.97;;;2.28;;
72388;SDS011;60566;48.062;9.930;2023-07-22T07:41:37;6.25;;;2.60;;
72388;SDS011;60566;48.062;9.930;2023-07-22T07:44:03;5.80;;;1.98;;
72388;SDS011;60566;48.062;9.930;2023-07-22T07:46:29;5.03;;;2.42;;
72388;SDS011;60566;48.062;9.930;2023-07-22T07:48:55;4.25;;;1.88;;
72388;SDS011;60566;48.062;9.930;2023-07-22T07:51:22;6.50;;;2.15;;
72388;SDS011;60566;48.062;9.930;2023-07-22T07:53:50;4.53;;;2.33;;
72388;SDS011;60566;48.062;9.930;2023-07-22T07:56:16;4.18;;;2.00;;
72388;SDS011;60566;48.062;9.930;2023-07-22T07:58:42;3.92;;;2.00;;
72388;SDS011;60566;48.062;9.930;2023-07-22T08:01:08;4.63;;;2.03;;
72388;SDS011;60566;48.062;9.930;2023-07-22T08:03:34;4.18;;;1.95;;
72388;SDS011;60566;48.062;9.930;2023-07-22T08:06:00;5.97;;;2.17;;
72388;SDS011;60566;48.062;9.930;2023-07-22T08:08:25;3.85;;;1.80;;
72388;SDS011;60566;48.062;9.930;2023-07-22T08:10:58;4.03;;;1.85;;
72388;SDS011;60566;48.062;9.930;2023-07-22T08:13:24;3.88;;;1.70;;
72388;SDS011;60566;48.062;9.930;2023-07-22T08:15:50;5.15;;;2.03;;
72388;SDS011;60566;48.062;9.930;2023-07-22T08:18:16;5.15;;;2.00;;
72388;SDS011;60566;48.062;9.930;2023-07-22T08:20:41;4.15;;;2.05;;
72388;SDS011;60566;48.062;9.930;2023-07-22T08:23:07;3.80;;;1.80;;
72388;SDS011;60566;48.062;9.930;2023-07-22T08:25:32;3.28;;;1.67;;
72388;SDS011;60566;48.062;9.930;2023-07-22T08:27:59;4.15;;;1.58;;
72388;SDS011;60566;48.062;9.930;2023-07-22T08:30:24;3.42;;;2.08;;
72388;SDS011;60566;48.062;9.930;2023-07-22T08:32:49;7.13;;;1.63;;
72388;SDS011;60566;48.062;9.930;2023-07-22T08:35:15;3.92;;;2.45;;
72388;SDS011;60566;48.062;9.930;2023-07-22T08:37:40;5.00;;;1.80;;
72388;SDS011;60566;48.062;9.930;2023-07-22T08:40:06;3.75;;;1.70;;
72388;SDS011;60566;48.062;9.930;2023-07-22T08:42:32;4.38;;;2.00;;
72388;SDS011;60566;48.062;9.930;2023-07-22T08:45:01;4.05;;;1.77;;
72388;SDS011;60566;48.062;9.930;2023-07-22T08:47:28;3.70;;;1.50;;
72388;SDS011;60566;48.062;9.930;2023-07-22T08:49:55;4.50;;;2.25;;
72388;SDS011;60566;48.062;9.930;2023-07-22T08:52:22;5.97;;;1.60;;
72388;SDS011;60566;48.062;9.930;2023-07-22T08:54:48;5.82;;;1.85;;
72388;SDS011;60566;48.062;9.930;2023-07-22T08:57:14;3.92;;;1.70;;
72388;SDS011;60566;48.062;9.930;2023-07-22T08:59:39;6.07;;;1.77;;
72388;SDS011;60566;48.062;9.930;2023-07-22T09:02:07;6.20;;;1.80;;
72388;SDS011;60566;48.062;9.930;2023-07-22T09:04:35;2.88;;;1.40;;
72388;SDS011;60566;48.062;9.930;2023-07-22T09:07:01;3.63;;;1.73;;
72388;SDS011;60566;48.062;9.930;2023-07-22T09:09:26;4.82;;;1.90;;
72388;SDS011;60566;48.062;9.930;2023-07-22T09:11:52;5.25;;;1.60;;
72388;SDS011;60566;48.062;9.930;2023-07-22T09:14:18;3.47;;;1.70;;
72388;SDS011;60566;48.062;9.930;2023-07-22T09:16:44;3.83;;;1.95;;
72388;SDS011;60566;48.062;9.930;2023-07-22T09:19:11;7.00;;;1.73;;
72388;SDS011;60566;48.062;9.930;2023-07-22T09:21:36;3.65;;;1.77;;
72388;SDS011;60566;48.062;9.930;2023-07-22T09:24:01;4.10;;;1.85;;
72388;SDS011;60566;48.062;9.930;2023-07-22T09:26:27;4.13;;;1.90;;
72388;SDS011;60566;48.062;9.930;2023-07-22T09:28:53;3.95;;;2.00;;
72388;SDS011;60566;48.062;9.930;2023-07-22T09:31:20;5.57;;;2.10;;
72388;SDS011;60566;48.062;9.930;2023-07-22T09:33:45;4.13;;;1.65;;
72388;SDS011;60566;48.062;9.930;2023-07-22T09:36:12;3.95;;;1.95;;
72388;SDS011;60566;48.062;9.930;2023-07-22T09:38:38;3.65;;;1.98;;
72388;SDS011;60566;48.062;9.930;2023-07-22T09:41:03;4.60;;;2.10;;
72388;SDS011;60566;48.062;9.930;2023-07-22T09:43:29;5.55;;;2.45;;
72388;SDS011;60566;48.062;9.930;2023-07-22T09:45:55;6.22;;;2.60;;
72388;SDS011;60566;48.062;9.930;2023-07-22T09:48:21;3.97;;;1.85;;
72388;SDS011;60566;48.062;9.930;2023-07-22T09:50:46;5.53;;;2.30;;
72388;SDS011;60566;48.062;9.930;2023-07-22T09:53:22;5.35;;;2.20;;
72388;SDS011;60566;48.062;9.930;2023-07-22T09:55:47;4.53;;;2.03;;
72388;SDS011;60566;48.062;9.930;2023-07-22T09:58:13;4.70;;;2.42;;
72388;SDS011;60566;48.062;9.930;2023-07-22T10:00:38;3.78;;;1.90;;
72388;SDS011;60566;48.062;9.930;2023-07-22T10:03:07;4.68;;;2.33;;
72388;SDS011;60566;48.062;9.930;2023-07-22T10:05:35;4.50;;;2.05;;
72388;SDS011;60566;48.062;9.930;2023-07-22T10:08:01;4.28;;;2.10;;
72388;SDS011;60566;48.062;9.930;2023-07-22T10:10:30;4.88;;;1.90;;
72388;SDS011;60566;48.062;9.930;2023-07-22T10:12:56;5.32;;;2.10;;
72388;SDS011;60566;48.062;9.930;2023-07-22T10:15:21;3.60;;;1.83;;
72388;SDS011;60566;48.062;9.930;2023-07-22T10:17:47;3.55;;;1.83;;
72388;SDS011;60566;48.062;9.930;2023-07-22T10:20:13;4.63;;;2.00;;
72388;SDS011;60566;48.062;9.930;2023-07-22T10:22:39;3.88;;;1.80;;
72388;SDS011;60566;48.062;9.930;2023-07-22T10:25:05;5.15;;;1.83;;
72388;SDS011;60566;48.062;9.930;2023-07-22T10:27:32;5.07;;;1.80;;
72388;SDS011;60566;48.062;9.930;2023-07-22T10:29:59;4.20;;;1.90;;
72388;SDS011;60566;48.062;9.930;2023-07-22T10:32:24;3.55;;;2.00;;
72388;SDS011;60566;48.062;9.930;2023-07-22T10:34:50;4.35;;;2.40;;
72388;SDS011;60566;48.062;9.930;2023-07-22T10:37:17;5.53;;;1.77;;
72388;SDS011;60566;48.062;9.930;2023-07-22T10:39:42;4.70;;;2.60;;
72388;SDS011;60566;48.062;9.930;2023-07-22T10:42:08;5.18;;;2.40;;
72388;SDS011;60566;48.062;9.930;2023-07-22T10:44:36;4.60;;;1.85;;
72388;SDS011;60566;48.062;9.930;2023-07-22T10:47:03;3.00;;;1.45;;
72388;SDS011;60566;48.062;9.930;2023-07-22T10:49:42;5.97;;;1.70;;
72388;SDS011;60566;48.062;9.930;2023-07-22T10:52:09;6.32;;;1.90;;
72388;SDS011;60566;48.062;9.930;2023-07-22T10:54:35;3.75;;;1.90;;
72388;SDS011;60566;48.062;9.930;2023-07-22T10:57:22;5.00;;;2.08;;
72388;SDS011;60566;48.062;9.930;2023-07-22T10:59:50;3.65;;;1.75;;
72388;SDS011;60566;48.062;9.930;2023-07-22T11:04:47;5.18;;;2.03;;
72388;SDS011;60566;48.062;9.930;2023-07-22T11:07:13;3.45;;;1.80;;
72388;SDS011;60566;48.062;9.930;2023-07-22T11:09:38;3.85;;;1.77;;
72388;SDS011;60566;48.062;9.930;2023-07-22T11:12:05;4.97;;;1.90;;
72388;SDS011;60566;48.062;9.930;2023-07-22T11:14:32;4.40;;;2.10;;
72388;SDS011;60566;48.062;9.930;2023-07-22T11:17:00;4.30;;;1.80;;
72388;SDS011;60566;48.062;9.930;2023-07-22T11:21:52;4.00;;;1.83;;
72388;SDS011;60566;48.062;9.930;2023-07-22T11:24:19;4.20;;;2.15;;
72388;SDS011;60566;48.062;9.930;2023-07-22T11:26:45;4.93;;;1.88;;
72388;SDS011;60566;48.062;9.930;2023-07-22T11:29:12;6.53;;;2.08;;
72388;SDS011;60566;48.062;9.930;2023-07-22T11:31:38;3.95;;;1.80;;
72388;SDS011;60566;48.062;9.930;2023-07-22T11:34:05;4.18;;;1.90;;
72388;SDS011;60566;48.062;9.930;2023-07-22T11:36:31;3.72;;;1.90;;
72388;SDS011;60566;48.062;9.930;2023-07-22T11:39:01;4.80;;;2.03;;
72388;SDS011;60566;48.062;9.930;2023-07-22T11:41:26;3.85;;;1.80;;
72388;SDS011;60566;48.062;9.930;2023-07-22T11:43:52;5.35;;;1.90;;
72388;SDS011;60566;48.062;9.930;2023-07-22T11:46:17;11.02;;;2.85;;
72388;SDS011;60566;48.062;9.930;2023-07-22T11:48:49;4.97;;;2.40;;
72388;SDS011;60566;48.062;9.930;2023-07-22T11:51:17;4.97;;;2.15;;
72388;SDS011;60566;48.062;9.930;2023-07-22T11:53:43;4.03;;;2.08;;
72388;SDS011;60566;48.062;9.930;2023-07-22T11:56:11;4.88;;;1.98;;
72388;SDS011;60566;48.062;9.930;2023-07-22T11:58:36;4.40;;;1.90;;
72388;SDS011;60566;48.062;9.930;2023-07-22T12:01:04;4.55;;;1.90;;
72388;SDS011;60566;48.062;9.930;2023-07-22T12:03:31;4.35;;;2.30;;
72388;SDS011;60566;48.062;9.930;2023-07-22T12:05:59;7.20;;;2.75;;
72388;SDS011;60566;48.062;9.930;2023-07-22T12:08:27;5.32;;;2.70;;
72388;SDS011;60566;48.062;9.930;2023-07-22T12:10:55;3.88;;;2.20;;
72388;SDS011;60566;48.062;9.930;2023-07-22T12:13:21;6.60;;;2.22;;
72388;SDS011;60566;48.062;9.930;2023-07-22T12:15:58;4.10;;;2.13;;
72388;SDS011;60566;48.062;9.930;2023-07-22T12:18:24;4.55;;;2.22;;
72388;SDS011;60566;48.062;9.930;2023-07-22T12:20:50;4.10;;;2.15;;
72388;SDS011;60566;48.062;9.930;2023-07-22T12:23:15;4.75;;;2.35;;
72388;SDS011;60566;48.062;9.930;2023-07-22T12:25:42;7.60;;;2.40;;
72388;SDS011;60566;48.062;9.930;2023-07-22T12:28:07;5.90;;;2.33;;
72388;SDS011;60566;48.062;9.930;2023-07-22T12:30:32;6.57;;;2.55;;
72388;SDS011;60566;48.062;9.930;2023-07-22T12:32:58;4.13;;;1.85;;
72388;SDS011;60566;48.062;9.930;2023-07-22T12:35:23;5.65;;;2.63;;
72388;SDS011;60566;48.062;9.930;2023-07-22T12:37:49;5.38;;;2.33;;
72388;SDS011;60566;48.062;9.930;2023-07-22T12:40:14;5.00;;;2.38;;
72388;SDS011;60566;48.062;9.930;2023-07-22T12:42:41;5.38;;;2.42;;
72388;SDS011;60566;48.062;9.930;2023-07-22T12:45:07;6.82;;;2.42;;
72388;SDS011;60566;48.062;9.930;2023-07-22T12:47:33;5.85;;;2.55;;
72388;SDS011;60566;48.062;9.930;2023-07-22T12:49:58;4.90;;;2.30;;
72388;SDS011;60566;48.062;9.930;2023-07-22T12:52:23;5.15;;;2.17;;
72388;SDS011;60566;48.062;9.930;2023-07-22T12:54:49;4.88;;;2.38;;
72388;SDS011;60566;48.062;9.930;2023-07-22T12:57:14;7.60;;;2.55;;
72388;SDS011;60566;48.062;9.930;2023-07-22T12:59:41;4.47;;;2.38;;
72388;SDS011;60566;48.062;9.930;2023-07-22T13:02:06;5.82;;;2.03;;
72388;SDS011;60566;48.062;9.930;2023-07-22T13:04:32;6.25;;;2.47;;
72388;SDS011;60566;48.062;9.930;2023-07-22T13:06:57;4.28;;;2.22;;
72388;SDS011;60566;48.062;9.930;2023-07-22T13:09:22;6.00;;;2.30;;
72388;SDS011;60566;48.062;9.930;2023-07-22T13:11:48;5.80;;;2.63;;
72388;SDS011;60566;48.062;9.930;2023-07-22T13:14:13;5.72;;;2.65;;
72388;SDS011;60566;48.062;9.930;2023-07-22T13:16:40;4.88;;;2.45;;
72388;SDS011;60566;48.062;9.930;2023-07-22T13:19:05;4.97;;;2.67;;
72388;SDS011;60566;48.062;9.930;2023-07-22T13:21:31;5.35;;;2.75;;
72388;SDS011;60566;48.062;9.930;2023-07-22T13:23:56;6.80;;;3.35;;
72388;SDS011;60566;48.062;9.930;2023-07-22T13:26:21;4.10;;;1.98;;
72388;SDS011;60566;48.062;9.930;2023-07-22T13:28:47;4.72;;;2.55;;
72388;SDS011;60566;48.062;9.930;2023-07-22T13:31:12;5.78;;;2.65;;
72388;SDS011;60566;48.062;9.930;2023-07-22T13:33:39;5.35;;;2.42;;
72388;SDS011;60566;48.062;9.930;2023-07-22T13:36:04;5.28;;;2.53;;
72388;SDS011;60566;48.062;9.930;2023-07-22T13:38:30;5.63;;;2.47;;
72388;SDS011;60566;48.062;9.930;2023-07-22T13:40:55;4.72;;;2.25;;
72388;SDS011;60566;48.062;9.930;2023-07-22T13:43:20;5.28;;;2.63;;
72388;SDS011;60566;48.062;9.930;2023-07-22T13:45:46;5.47;;;2.45;;
72388;SDS011;60566;48.062;9.930;2023-07-22T13:48:11;7.97;;;3.05;;
72388;SDS011;60566;48.062;9.930;2023-07-22T13:50:38;5.20;;;2.40;;
72388;SDS011;60566;48.062;9.930;2023-07-22T13:53:03;5.80;;;2.50;;
72388;SDS011;60566;48.062;9.930;2023-07-22T13:55:28;8.88;;;2.60;;
72388;SDS011;60566;48.062;9.930;2023-07-22T13:57:54;7.30;;;2.53;;
72388;SDS011;60566;48.062;9.930;2023-07-22T14:00:19;4.25;;;2.22;;
72388;SDS011;60566;48.062;9.930;2023-07-22T14:02:45;5.90;;;2.95;;
72388;SDS011;60566;48.062;9.930;2023-07-22T14:05:10;5.70;;;2.60;;
72388;SDS011;60566;48.062;9.930;2023-07-22T14:07:38;7.93;;;2.75;;
72388;SDS011;60566;48.062;9.930;2023-07-22T14:10:04;5.65;;;2.47;;
72388;SDS011;60566;48.062;9.930;2023-07-22T14:12:30;5.97;;;2.15;;
72388;SDS011;60566;48.062;9.930;2023-07-22T14:14:55;5.55;;;2.67;;
72388;SDS011;60566;48.062;9.930;2023-07-22T14:17:21;5.20;;;2.67;;
72388;SDS011;60566;48.062;9.930;2023-07-22T14:19:46;5.72;;;2.65;;
72388;SDS011;60566;48.062;9.930;2023-07-22T14:22:11;5.18;;;2.70;;
72388;SDS011;60566;48.062;9.930;2023-07-22T14:24:38;5.47;;;2.50;;
72388;SDS011;60566;48.062;9.930;2023-07-22T14:27:04;4.93;;;2.08;;
72388;SDS011;60566;48.062;9.930;2023-07-22T14:29:29;20.05;;;3.53;;
72388;SDS011;60566;48.062;9.930;2023-07-22T14:31:55;6.05;;;2.35;;
72388;SDS011;60566;48.062;9.930;2023-07-22T14:34:21;6.45;;;2.97;;
72388;SDS011;60566;48.062;9.930;2023-07-22T14:36:46;8.77;;;3.13;;
72388;SDS011;60566;48.062;9.930;2023-07-22T14:39:11;4.93;;;2.50;;
72388;SDS011;60566;48.062;9.930;2023-07-22T14:41:40;9.82;;;2.80;;
72388;SDS011;60566;48.062;9.930;2023-07-22T14:44:06;6.10;;;2.72;;